sensor_id;sensor_type;location;lat;lon;timestamp;pressure;altitude;pressure_sealevel;temperature;humidity
62617;BME280;62539;51.190;6.808;2023-04-22T00:00:47;100553.22;;;20.15;51.76
62617;BME280;62539;51.190;6.808;2023-04-22T00:03:12;100551.50;;;20.14;51.87
62617;BME280;62539;51.190;6.808;2023-04-22T00:05:38;100556.78;;;20.14;51.94
62617;BME280;62539;51.190;6.808;2023-04-22T00:08:06;100554.16;;;20.14;52.06
62617;BME280;62539;51.190;6.808;2023-04-22T00:10:32;100550.72;;;20.12;51.88
62617;BME280;62539;51.190;6.808;2023-04-22T00:12:58;100548.09;;;20.12;52.14
62617;BME280;62539;51.190;6.808;2023-04-22T00:15:24;100538.47;;;20.11;52.05
62617;BME280;62539;51.190;6.808;2023-04-22T00:17:50;100547.31;;;20.10;52.10
62617;BME280;62539;51.190;6.808;2023-04-22T00:20:17;100544.66;;;20.10;52.14
62617;BME280;62539;51.190;6.808;2023-04-22T00:22:45;100536.84;;;20.08;52.14
62617;BME280;62539;51.190;6.808;2023-04-22T00:25:10;100545.59;;;20.09;52.22
62617;BME280;62539;51.190;6.808;2023-04-22T00:27:36;100529.88;;;20.07;52.24
62617;BME280;62539;51.190;6.808;2023-04-22T00:30:01;100536.91;;;20.07;52.22
62617;BME280;62539;51.190;6.808;2023-04-22T00:32:27;100544.81;;;20.07;52.19
62617;BME280;62539;51.190;6.808;2023-04-22T00:34:53;100537.84;;;20.06;52.40
62617;BME280;62539;51.190;6.808;2023-04-22T00:37:18;100533.50;;;20.05;52.21
62617;BME280;62539;51.190;6.808;2023-04-22T00:39:43;100523.88;;;20.04;52.35
62617;BME280;62539;51.190;6.808;2023-04-22T00:42:10;100536.13;;;20.05;52.23
62617;BME280;62539;51.190;6.808;2023-04-22T00:44:37;100532.69;;;20.03;52.48
62617;BME280;62539;51.190;6.808;2023-04-22T00:47:05;100535.34;;;20.03;52.42
62617;BME280;62539;51.190;6.808;2023-04-22T00:49:31;100535.41;;;20.01;52.39
62617;BME280;62539;51.190;6.808;2023-04-22T00:51:56;100535.47;;;20.00;52.57
62617;BME280;62539;51.190;6.808;2023-04-22T00:54:22;100536.34;;;20.00;52.50
62617;BME280;62539;51.190;6.808;2023-04-22T00:56:48;100534.56;;;20.01;52.46
62617;BME280;62539;51.190;6.808;2023-04-22T00:59:14;100535.47;;;20.00;52.49
62617;BME280;62539;51.190;6.808;2023-04-22T01:01:40;100544.28;;;19.98;52.54
62617;BME280;62539;51.190;6.808;2023-04-22T01:04:06;100544.28;;;19.98;52.64
62617;BME280;62539;51.190;6.808;2023-04-22T01:06:34;100541.66;;;19.98;52.61
62617;BME280;62539;51.190;6.808;2023-04-22T01:08:59;100534.69;;;19.97;52.58
62617;BME280;62539;51.190;6.808;2023-04-22T01:11:24;100532.97;;;19.96;52.65
62617;BME280;62539;51.190;6.808;2023-04-22T01:13:50;100531.25;;;19.95;52.62
62617;BME280;62539;51.190;6.808;2023-04-22T01:16:16;100528.63;;;19.95;52.55
62617;BME280;62539;51.190;6.808;2023-04-22T01:18:42;100529.56;;;19.94;52.47
62617;BME280;62539;51.190;6.808;2023-04-22T01:21:08;100525.22;;;19.93;52.55
62617;BME280;62539;51.190;6.808;2023-04-22T01:23:33;100533.09;;;19.93;52.63
62617;BME280;62539;51.190;6.808;2023-04-22T01:25:59;100527.06;;;19.91;52.65
62617;BME280;62539;51.190;6.808;2023-04-22T01:28:24;100528.84;;;19.91;52.42
62617;BME280;62539;51.190;6.808;2023-04-22T01:30:51;100525.34;;;19.90;52.53
62617;BME280;62539;51.190;6.808;2023-04-22T01:33:17;100527.97;;;19.90;52.71
62617;BME280;62539;51.190;6.808;2023-04-22T01:35:43;100534.16;;;19.89;52.58
62617;BME280;62539;51.190;6.808;2023-04-22T01:38:09;100529.78;;;19.88;52.73
62617;BME280;62539;51.190;6.808;2023-04-22T01:40:37;100534.22;;;19.88;52.58
62617;BME280;62539;51.190;6.808;2023-04-22T01:43:03;100532.50;;;19.87;52.61
62617;BME280;62539;51.190;6.808;2023-04-22T01:45:30;100536.91;;;19.86;52.62
62617;BME280;62539;51.190;6.808;2023-04-22T01:47:55;100527.28;;;19.85;52.45
62617;BME280;62539;51.190;6.808;2023-04-22T01:50:21;100528.22;;;19.84;52.55
62617;BME280;62539;51.190;6.808;2023-04-22T01:52:47;100525.59;;;19.84;52.54
62617;BME280;62539;51.190;6.808;2023-04-22T01:55:13;100530.84;;;19.84;52.63
62617;BME280;62539;51.190;6.808;2023-04-22T01:57:39;100533.47;;;19.84;52.69
62617;BME280;62539;51.190;6.808;2023-04-22T02:00:05;100530.06;;;19.82;52.71
62617;BME280;62539;51.190;6.808;2023-04-22T02:02:32;100539.75;;;19.81;52.63
62617;BME280;62539;51.190;6.808;2023-04-22T02:04:58;100534.47;;;19.81;52.57
62617;BME280;62539;51.190;6.808;2023-04-22T02:07:23;100535.41;;;19.80;52.55
62617;BME280;62539;51.190;6.808;2023-04-22T02:09:49;100534.53;;;19.80;52.64
62617;BME280;62539;51.190;6.808;2023-04-22T02:12:14;100531.91;;;19.80;52.65
62617;BME280;62539;51.190;6.808;2023-04-22T02:14:40;100537.16;;;19.80;52.68
62617;BME280;62539;51.190;6.808;2023-04-22T02:17:05;100527.56;;;19.79;52.54
62617;BME280;62539;51.190;6.808;2023-04-22T02:19:31;100533.75;;;19.78;52.71
62617;BME280;62539;51.190;6.808;2023-04-22T02:21:56;100526.78;;;19.77;52.78
62617;BME280;62539;51.190;6.808;2023-04-22T02:24:22;100525.00;;;19.77;52.71
62617;BME280;62539;51.190;6.808;2023-04-22T02:26:47;100526.00;;;19.75;52.72
62617;BME280;62539;51.190;6.808;2023-04-22T02:29:13;100518.97;;;19.75;52.80
62617;BME280;62539;51.190;6.808;2023-04-22T02:31:40;100526.00;;;19.75;52.95
62617;BME280;62539;51.190;6.808;2023-04-22T02:34:05;100512.00;;;19.74;52.71
62617;BME280;62539;51.190;6.808;2023-04-22T02:36:31;100516.38;;;19.74;52.64
62617;BME280;62539;51.190;6.808;2023-04-22T02:38:58;100521.66;;;19.74;53.07
62617;BME280;62539;51.190;6.808;2023-04-22T02:41:24;100519.94;;;19.73;52.86
62617;BME280;62539;51.190;6.808;2023-04-22T02:43:49;100514.66;;;19.73;52.89
62617;BME280;62539;51.190;6.808;2023-04-22T02:46:15;100511.19;;;19.72;52.93
62617;BME280;62539;51.190;6.808;2023-04-22T02:48:41;100507.69;;;19.72;52.82
62617;BME280;62539;51.190;6.808;2023-04-22T02:51:07;100507.69;;;19.72;52.77
62617;BME280;62539;51.190;6.808;2023-04-22T02:53:33;100506.00;;;19.71;52.75
62617;BME280;62539;51.190;6.808;2023-04-22T02:55:58;100495.47;;;19.71;52.97
62617;BME280;62539;51.190;6.808;2023-04-22T02:58:24;100499.00;;;19.69;52.83
62617;BME280;62539;51.190;6.808;2023-04-22T03:00:51;100498.16;;;19.69;52.92
62617;BME280;62539;51.190;6.808;2023-04-22T03:03:17;100497.31;;;19.68;52.95
62617;BME280;62539;51.190;6.808;2023-04-22T03:05:42;100489.41;;;19.68;52.93
62617;BME280;62539;51.190;6.808;2023-04-22T03:08:08;100481.59;;;19.67;52.89
62617;BME280;62539;51.190;6.808;2023-04-22T03:10:33;100486.84;;;19.67;52.92
62617;BME280;62539;51.190;6.808;2023-04-22T03:12:59;100478.97;;;19.67;52.93
62617;BME280;62539;51.190;6.808;2023-04-22T03:15:24;100477.25;;;19.66;52.92
62617;BME280;62539;51.190;6.808;2023-04-22T03:17:49;100482.53;;;19.66;52.93
62617;BME280;62539;51.190;6.808;2023-04-22T03:20:15;100485.19;;;19.64;52.89
62617;BME280;62539;51.190;6.808;2023-04-22T03:22:41;100479.94;;;19.64;52.98
62617;BME280;62539;51.190;6.808;2023-04-22T03:25:06;100485.19;;;19.64;53.06
62617;BME280;62539;51.190;6.808;2023-04-22T03:27:32;100484.38;;;19.64;53.17
62617;BME280;62539;51.190;6.808;2023-04-22T03:29:58;100481.78;;;19.62;53.02
62617;BME280;62539;51.190;6.808;2023-04-22T03:32:23;100472.13;;;19.63;52.95
62617;BME280;62539;51.190;6.808;2023-04-22T03:34:48;100466.00;;;19.62;52.95
62617;BME280;62539;51.190;6.808;2023-04-22T03:37:14;100455.47;;;19.62;52.88
62617;BME280;62539;51.190;6.808;2023-04-22T03:39:40;100465.16;;;19.62;53.03
62617;BME280;62539;51.190;6.808;2023-04-22T03:42:05;100462.56;;;19.60;52.98
62617;BME280;62539;51.190;6.808;2023-04-22T03:44:31;100449.41;;;19.60;53.25
62617;BME280;62539;51.190;6.808;2023-04-22T03:46:56;100454.69;;;19.60;52.95
62617;BME280;62539;51.190;6.808;2023-04-22T03:49:21;100453.06;;;19.58;52.86
62617;BME280;62539;51.190;6.808;2023-04-22T03:51:47;100457.44;;;19.57;52.70
62617;BME280;62539;51.190;6.808;2023-04-22T03:54:12;100460.06;;;19.57;52.58
62617;BME280;62539;51.190;6.808;2023-04-22T03:56:38;100460.06;;;19.57;52.75
62617;BME280;62539;51.190;6.808;2023-04-22T03:59:03;100450.47;;;19.56;52.69
62617;BME280;62539;51.190;6.808;2023-04-22T04:01:28;100460.16;;;19.56;52.82
62617;BME280;62539;51.190;6.808;2023-04-22T04:03:54;100459.28;;;19.55;52.96
62617;BME280;62539;51.190;6.808;2023-04-22T04:06:20;100454.13;;;19.53;52.85
62617;BME280;62539;51.190;6.808;2023-04-22T04:08:45;100456.75;;;19.53;52.88
62617;BME280;62539;51.190;6.808;2023-04-22T04:11:11;100435.69;;;19.53;52.86
62617;BME280;62539;51.190;6.808;2023-04-22T04:13:36;100429.56;;;19.53;52.97
62617;BME280;62539;51.190;6.808;2023-04-22T04:16:02;100431.28;;;19.54;53.09
62617;BME280;62539;51.190;6.808;2023-04-22T04:18:28;100432.97;;;19.55;53.10
62617;BME280;62539;51.190;6.808;2023-04-22T04:20:54;100425.97;;;19.56;53.18
62617;BME280;62539;51.190;6.808;2023-04-22T04:23:20;100424.16;;;19.56;53.09
62617;BME280;62539;51.190;6.808;2023-04-22T04:25:46;100417.16;;;19.57;53.13
62617;BME280;62539;51.190;6.808;2023-04-22T04:28:12;100429.44;;;19.56;53.25
62617;BME280;62539;51.190;6.808;2023-04-22T04:30:37;100418.91;;;19.56;53.23
62617;BME280;62539;51.190;6.808;2023-04-22T04:33:05;100422.47;;;19.55;53.25
62617;BME280;62539;51.190;6.808;2023-04-22T04:35:35;100418.91;;;19.56;53.29
62617;BME280;62539;51.190;6.808;2023-04-22T04:38:02;100429.44;;;19.56;53.05
62617;BME280;62539;51.190;6.808;2023-04-22T04:40:29;100422.47;;;19.55;53.17
62617;BME280;62539;51.190;6.808;2023-04-22T04:42:55;100429.44;;;19.56;52.91
62617;BME280;62539;51.190;6.808;2023-04-22T04:45:26;100427.72;;;19.55;53.13
62617;BME280;62539;51.190;6.808;2023-04-22T04:47:52;100428.59;;;19.56;52.92
62617;BME280;62539;51.190;6.808;2023-04-22T04:50:18;100425.09;;;19.55;53.02
62617;BME280;62539;51.190;6.808;2023-04-22T04:52:46;100420.69;;;19.56;53.13
62617;BME280;62539;51.190;6.808;2023-04-22T04:55:13;100425.03;;;19.57;53.04
62617;BME280;62539;51.190;6.808;2023-04-22T04:57:39;100411.00;;;19.56;53.05
62617;BME280;62539;51.190;6.808;2023-04-22T05:00:07;100405.75;;;19.56;53.15
62617;BME280;62539;51.190;6.808;2023-04-22T05:02:32;100413.63;;;19.56;53.05
62617;BME280;62539;51.190;6.808;2023-04-22T05:04:58;100407.47;;;19.57;53.04
62617;BME280;62539;51.190;6.808;2023-04-22T05:07:23;100404.81;;;19.57;52.85
62617;BME280;62539;51.190;6.808;2023-04-22T05:09:48;100407.47;;;19.57;53.04
62617;BME280;62539;51.190;6.808;2023-04-22T05:12:14;100405.69;;;19.58;52.88
62617;BME280;62539;51.190;6.808;2023-04-22T05:14:39;100400.44;;;19.58;52.78
62617;BME280;62539;51.190;6.808;2023-04-22T05:17:05;100399.56;;;19.57;52.93
62617;BME280;62539;51.190;6.808;2023-04-22T05:19:31;100402.97;;;19.59;52.76
62617;BME280;62539;51.190;6.808;2023-04-22T05:21:56;100405.69;;;19.58;52.81
62617;BME280;62539;51.190;6.808;2023-04-22T05:24:22;100411.78;;;19.58;52.65
62617;BME280;62539;51.190;6.808;2023-04-22T05:26:48;100416.09;;;19.61;52.88
62617;BME280;62539;51.190;6.808;2023-04-22T05:29:13;100409.13;;;19.60;52.74
62617;BME280;62539;51.190;6.808;2023-04-22T05:31:39;100411.66;;;19.61;52.65
62617;BME280;62539;51.190;6.808;2023-04-22T05:34:04;100410.81;;;19.61;52.93
62617;BME280;62539;51.190;6.808;2023-04-22T05:36:29;100419.56;;;19.61;52.83
62617;BME280;62539;51.190;6.808;2023-04-22T05:38:56;100416.91;;;19.61;52.59
62617;BME280;62539;51.190;6.808;2023-04-22T05:41:21;100418.63;;;19.62;52.48
62617;BME280;62539;51.190;6.808;2023-04-22T05:43:46;100416.09;;;19.61;52.49
62617;BME280;62539;51.190;6.808;2023-04-22T05:46:12;100415.16;;;19.62;52.38
62617;BME280;62539;51.190;6.808;2023-04-22T05:48:37;100420.41;;;19.62;52.50
62617;BME280;62539;51.190;6.808;2023-04-22T05:51:03;100424.75;;;19.63;52.50
62617;BME280;62539;51.190;6.808;2023-04-22T05:53:28;100424.75;;;19.63;52.29
62617;BME280;62539;51.190;6.808;2023-04-22T05:55:54;100424.75;;;19.63;52.27
62617;BME280;62539;51.190;6.808;2023-04-22T05:58:19;100426.53;;;19.62;52.49
62617;BME280;62539;51.190;6.808;2023-04-22T06:00:45;100422.97;;;19.63;52.42
62617;BME280;62539;51.190;6.808;2023-04-22T06:03:10;100422.03;;;19.64;52.39
62617;BME280;62539;51.190;6.808;2023-04-22T06:05:36;100420.28;;;19.65;52.54
62617;BME280;62539;51.190;6.808;2023-04-22T06:08:01;100414.16;;;19.64;52.50
62617;BME280;62539;51.190;6.808;2023-04-22T06:10:27;100422.84;;;19.66;52.56
62617;BME280;62539;51.190;6.808;2023-04-22T06:12:52;100421.91;;;19.67;52.52
62617;BME280;62539;51.190;6.808;2023-04-22T06:15:18;100420.06;;;19.69;52.67
62617;BME280;62539;51.190;6.808;2023-04-22T06:17:43;100419.22;;;19.69;52.80
62617;BME280;62539;51.190;6.808;2023-04-22T06:20:10;100417.44;;;19.69;52.82
62617;BME280;62539;51.190;6.808;2023-04-22T06:22:36;100413.88;;;19.71;52.81
62617;BME280;62539;51.190;6.808;2023-04-22T06:25:01;100421.78;;;19.71;52.81
62617;BME280;62539;51.190;6.808;2023-04-22T06:27:27;100422.66;;;19.71;52.81
62617;BME280;62539;51.190;6.808;2023-04-22T06:29:52;100419.94;;;19.73;53.10
62617;BME280;62539;51.190;6.808;2023-04-22T06:32:18;100404.13;;;19.73;53.04
62617;BME280;62539;51.190;6.808;2023-04-22T06:34:43;100411.97;;;19.74;53.03
62617;BME280;62539;51.190;6.808;2023-04-22T06:37:08;100409.25;;;19.76;53.04
62617;BME280;62539;51.190;6.808;2023-04-22T06:39:34;100410.97;;;19.77;53.16
62617;BME280;62539;51.190;6.808;2023-04-22T06:42:00;100411.84;;;19.77;53.16
62617;BME280;62539;51.190;6.808;2023-04-22T06:44:25;100411.84;;;19.77;53.16
62617;BME280;62539;51.190;6.808;2023-04-22T06:46:51;100405.56;;;19.80;53.28
62617;BME280;62539;51.190;6.808;2023-04-22T06:49:16;100400.31;;;19.80;53.02
62617;BME280;62539;51.190;6.808;2023-04-22T06:51:42;100408.97;;;19.82;53.15
62617;BME280;62539;51.190;6.808;2023-04-22T06:54:07;100403.72;;;19.82;53.04
62617;BME280;62539;51.190;6.808;2023-04-22T06:56:33;100401.88;;;19.84;53.30
62617;BME280;62539;51.190;6.808;2023-04-22T06:58:58;100405.38;;;19.85;52.77
62617;BME280;62539;51.190;6.808;2023-04-22T07:01:24;100402.66;;;19.86;52.97
62617;BME280;62539;51.190;6.808;2023-04-22T07:03:50;100401.72;;;19.87;53.13
62617;BME280;62539;51.190;6.808;2023-04-22T07:06:15;100399.91;;;19.89;52.82
62617;BME280;62539;51.190;6.808;2023-04-22T07:08:41;100402.50;;;19.91;52.80
62617;BME280;62539;51.190;6.808;2023-04-22T07:11:07;100404.19;;;19.92;52.51
62617;BME280;62539;51.190;6.808;2023-04-22T07:13:33;100405.97;;;19.91;52.43
62617;BME280;62539;51.190;6.808;2023-04-22T07:16:01;100402.50;;;19.91;52.63
62617;BME280;62539;51.190;6.808;2023-04-22T07:18:27;100404.19;;;19.92;52.67
62617;BME280;62539;51.190;6.808;2023-04-22T07:20:53;100401.47;;;19.93;52.64
62617;BME280;62539;51.190;6.808;2023-04-22T07:23:19;100396.22;;;19.93;52.43
62617;BME280;62539;51.190;6.808;2023-04-22T07:25:44;100403.97;;;19.96;52.38
62617;BME280;62539;51.190;6.808;2023-04-22T07:28:10;100398.66;;;19.98;52.49
62617;BME280;62539;51.190;6.808;2023-04-22T07:30:35;100388.94;;;19.98;52.39
62617;BME280;62539;51.190;6.808;2023-04-22T07:33:00;100381.00;;;20.00;52.42
62617;BME280;62539;51.190;6.808;2023-04-22T07:35:26;100380.91;;;20.02;52.20
62617;BME280;62539;51.190;6.808;2023-04-22T07:37:53;100376.44;;;20.04;52.17
62617;BME280;62539;51.190;6.808;2023-04-22T07:40:19;100380.75;;;20.05;52.08
62617;BME280;62539;51.190;6.808;2023-04-22T07:42:45;100385.06;;;20.07;52.06
62617;BME280;62539;51.190;6.808;2023-04-22T07:45:10;100377.06;;;20.09;51.89
62617;BME280;62539;51.190;6.808;2023-04-22T07:47:36;100379.56;;;20.12;51.86
62617;BME280;62539;51.190;6.808;2023-04-22T07:50:02;100373.34;;;20.13;51.83
62617;BME280;62539;51.190;6.808;2023-04-22T07:52:27;100370.66;;;20.15;51.63
62617;BME280;62539;51.190;6.808;2023-04-22T07:54:54;100363.59;;;20.15;51.68
62617;BME280;62539;51.190;6.808;2023-04-22T07:57:20;100360.00;;;20.18;51.55
62617;BME280;62539;51.190;6.808;2023-04-22T07:59:47;100361.69;;;20.19;51.78
62617;BME280;62539;51.190;6.808;2023-04-22T08:02:13;100362.47;;;20.21;51.57
62617;BME280;62539;51.190;6.808;2023-04-22T08:04:38;100365.88;;;20.23;51.36
62617;BME280;62539;51.190;6.808;2023-04-22T08:07:04;100367.50;;;20.25;51.23
62617;BME280;62539;51.190;6.808;2023-04-22T08:09:29;100357.75;;;20.27;51.28
62617;BME280;62539;51.190;6.808;2023-04-22T08:11:55;100364.72;;;20.29;50.98
62617;BME280;62539;51.190;6.808;2023-04-22T08:14:22;100362.88;;;20.31;51.02
62617;BME280;62539;51.190;6.808;2023-04-22T08:16:47;100351.34;;;20.33;50.77
62617;BME280;62539;51.190;6.808;2023-04-22T08:19:12;100348.63;;;20.35;50.93
62617;BME280;62539;51.190;6.808;2023-04-22T08:21:38;100356.38;;;20.38;50.95
62617;BME280;62539;51.190;6.808;2023-04-22T08:24:03;100357.16;;;20.40;50.94
62617;BME280;62539;51.190;6.808;2023-04-22T08:26:30;100348.16;;;20.44;50.80
62617;BME280;62539;51.190;6.808;2023-04-22T08:28:55;100337.47;;;20.47;50.57
62617;BME280;62539;51.190;6.808;2023-04-22T08:31:21;100325.09;;;20.49;50.94
62617;BME280;62539;51.190;6.808;2023-04-22T08:33:46;100332.84;;;20.52;50.92
62617;BME280;62539;51.190;6.808;2023-04-22T08:36:12;100344.16;;;20.54;50.59
62617;BME280;62539;51.190;6.808;2023-04-22T08:38:37;100338.88;;;20.54;50.84
62617;BME280;62539;51.190;6.808;2023-04-22T08:41:04;100335.31;;;20.55;50.60
62617;BME280;62539;51.190;6.808;2023-04-22T08:43:31;100333.56;;;20.56;50.85
62617;BME280;62539;51.190;6.808;2023-04-22T08:45:56;100329.13;;;20.56;50.58
62617;BME280;62539;51.190;6.808;2023-04-22T08:48:22;100335.09;;;20.60;50.92
62617;BME280;62539;51.190;6.808;2023-04-22T08:50:48;100335.00;;;20.62;50.62
62617;BME280;62539;51.190;6.808;2023-04-22T08:53:14;100331.44;;;20.63;50.66
62617;BME280;62539;51.190;6.808;2023-04-22T08:55:42;100328.66;;;20.66;50.97
62617;BME280;62539;51.190;6.808;2023-04-22T08:58:10;100325.03;;;20.68;50.73
62617;BME280;62539;51.190;6.808;2023-04-22T09:00:38;100325.72;;;20.72;51.23
62617;BME280;62539;51.190;6.808;2023-04-22T09:03:07;100321.22;;;20.74;50.66
62617;BME280;62539;51.190;6.808;2023-04-22T09:05:33;100316.72;;;20.76;51.01
62617;BME280;62539;51.190;6.808;2023-04-22T09:08:01;100321.88;;;20.79;50.72
62617;BME280;62539;51.190;6.808;2023-04-22T09:10:29;100312.88;;;20.83;50.72
62617;BME280;62539;51.190;6.808;2023-04-22T09:12:55;100302.25;;;20.85;50.42
62617;BME280;62539;51.190;6.808;2023-04-22T09:15:23;100307.28;;;20.90;50.27
62617;BME280;62539;51.190;6.808;2023-04-22T09:17:52;100307.97;;;20.93;50.59
62617;BME280;62539;51.190;6.808;2023-04-22T09:20:17;100299.03;;;20.96;50.28
62617;BME280;62539;51.190;6.808;2023-04-22T09:22:45;100305.81;;;21.02;50.44
62617;BME280;62539;51.190;6.808;2023-04-22T09:25:25;100304.78;;;21.04;50.34
62617;BME280;62539;51.190;6.808;2023-04-22T09:30:26;100301.50;;;21.17;50.07
62617;BME280;62539;51.190;6.808;2023-04-22T09:32:53;100302.19;;;21.20;50.14
62617;BME280;62539;51.190;6.808;2023-04-22T09:35:31;100307.19;;;21.25;49.79
62617;BME280;62539;51.190;6.808;2023-04-22T09:38:01;100308.75;;;21.29;49.89
62617;BME280;62539;51.190;6.808;2023-04-22T09:40:29;100305.94;;;21.32;49.88
62617;BME280;62539;51.190;6.808;2023-04-22T09:42:56;100303.13;;;21.35;49.70
62617;BME280;62539;51.190;6.808;2023-04-22T09:45:26;100300.34;;;21.38;49.54
62617;BME280;62539;51.190;6.808;2023-04-22T09:48:01;100309.78;;;21.42;49.51
62617;BME280;62539;51.190;6.808;2023-04-22T09:50:36;100302.66;;;21.44;49.50
62617;BME280;62539;51.190;6.808;2023-04-22T09:53:09;100298.91;;;21.49;49.26
62617;BME280;62539;51.190;6.808;2023-04-22T09:55:39;100308.34;;;21.53;49.19
62617;BME280;62539;51.190;6.808;2023-04-22T09:58:08;100302.13;;;21.54;49.13
62617;BME280;62539;51.190;6.808;2023-04-22T10:00:42;100290.47;;;21.58;49.18
62617;BME280;62539;51.190;6.808;2023-04-22T10:03:11;100289.38;;;21.62;49.09
62617;BME280;62539;51.190;6.808;2023-04-22T10:05:37;100290.94;;;21.66;48.92
62617;BME280;62539;51.190;6.808;2023-04-22T10:08:04;100289.91;;;21.69;49.18
62617;BME280;62539;51.190;6.808;2023-04-22T10:10:30;100282.69;;;21.72;48.94
62617;BME280;62539;51.190;6.808;2023-04-22T10:12:56;100287.78;;;21.76;48.86
62617;BME280;62539;51.190;6.808;2023-04-22T10:15:23;100276.13;;;21.80;48.45
62617;BME280;62539;51.190;6.808;2023-04-22T10:17:51;100299.59;;;21.84;48.62
62617;BME280;62539;51.190;6.808;2023-04-22T10:20:19;100298.59;;;21.87;48.71
62617;BME280;62539;51.190;6.808;2023-04-22T10:22:46;100298.44;;;21.90;48.59
62617;BME280;62539;51.190;6.808;2023-04-22T10:25:22;100302.59;;;21.94;48.33
62617;BME280;62539;51.190;6.808;2023-04-22T10:30:30;100295.94;;;22.03;48.14
62617;BME280;62539;51.190;6.808;2023-04-22T10:41:15;100300.78;;;22.11;47.92
62617;BME280;62539;51.190;6.808;2023-04-22T10:43:42;100299.00;;;22.11;47.92
62617;BME280;62539;51.190;6.808;2023-04-22T10:49:12;100303.16;;;22.15;47.82
62617;BME280;62539;51.190;6.808;2023-04-22T10:59:32;100311.81;;;22.34;47.61
62617;BME280;62539;51.190;6.808;2023-04-22T11:02:04;100315.81;;;22.41;47.07
62617;BME280;62539;51.190;6.808;2023-04-22T11:04:30;100311.16;;;22.46;46.98
62617;BME280;62539;51.190;6.808;2023-04-22T11:09:46;100314.47;;;22.64;46.52
62617;BME280;62539;51.190;6.808;2023-04-22T11:15:00;100320.94;;;22.74;46.34
62617;BME280;62539;51.190;6.808;2023-04-22T11:17:29;100322.38;;;22.80;46.39
62617;BME280;62539;51.190;6.808;2023-04-22T11:19:57;100309.72;;;22.85;45.99
62617;BME280;62539;51.190;6.808;2023-04-22T11:22:23;100306.91;;;22.88;46.10
62617;BME280;62539;51.190;6.808;2023-04-22T11:24:55;100307.72;;;22.89;45.98
62617;BME280;62539;51.190;6.808;2023-04-22T11:27:21;100313.13;;;22.87;45.89
62617;BME280;62539;51.190;6.808;2023-04-22T11:30:06;100296.41;;;22.87;46.31
62617;BME280;62539;51.190;6.808;2023-04-22T11:32:34;100298.19;;;22.86;46.13
62617;BME280;62539;51.190;6.808;2023-04-22T11:35:06;100307.09;;;22.85;45.94
62617;BME280;62539;51.190;6.808;2023-04-22T11:40:25;100308.59;;;22.89;46.20
62617;BME280;62539;51.190;6.808;2023-04-22T11:42:51;100306.53;;;22.95;45.70
62617;BME280;62539;51.190;6.808;2023-04-22T11:45:17;100302.75;;;22.99;45.70
62617;BME280;62539;51.190;6.808;2023-04-22T11:47:42;100302.06;;;23.10;45.25
62617;BME280;62539;51.190;6.808;2023-04-22T11:50:11;100303.69;;;23.12;45.11
62617;BME280;62539;51.190;6.808;2023-04-22T11:55:12;100282.91;;;23.20;45.24
62617;BME280;62539;51.190;6.808;2023-04-22T12:00:45;100285.75;;;23.17;44.72
62617;BME280;62539;51.190;6.808;2023-04-22T12:03:23;100292.56;;;23.22;44.84
62617;BME280;62539;51.190;6.808;2023-04-22T12:06:00;100292.09;;;23.29;44.56
62617;BME280;62539;51.190;6.808;2023-04-22T12:08:36;100291.88;;;23.47;44.76
62617;BME280;62539;51.190;6.808;2023-04-22T12:11:11;100294.31;;;23.64;44.77
62617;BME280;62539;51.190;6.808;2023-04-22T12:29:08;100301.22;;;24.49;43.67
62617;BME280;62539;51.190;6.808;2023-04-22T12:31:34;100292.50;;;24.60;43.37
62617;BME280;62539;51.190;6.808;2023-04-22T12:34:00;100297.88;;;24.73;43.15
62617;BME280;62539;51.190;6.808;2023-04-22T12:36:26;100295.22;;;24.86;42.89
62617;BME280;62539;51.190;6.808;2023-04-22T12:38:52;100294.47;;;24.84;42.78
62617;BME280;62539;51.190;6.808;2023-04-22T12:41:17;100294.47;;;24.84;42.60
62617;BME280;62539;51.190;6.808;2023-04-22T12:43:42;100287.47;;;24.83;42.84
62617;BME280;62539;51.190;6.808;2023-04-22T12:46:08;100294.44;;;24.71;43.05
62617;BME280;62539;51.190;6.808;2023-04-22T12:48:34;100308.66;;;24.70;42.76
62617;BME280;62539;51.190;6.808;2023-04-22T12:51:01;100299.56;;;24.87;42.70
62617;BME280;62539;51.190;6.808;2023-04-22T12:53:27;100307.00;;;24.82;42.80
62617;BME280;62539;51.190;6.808;2023-04-22T12:55:54;100307.19;;;24.66;42.98
62617;BME280;62539;51.190;6.808;2023-04-22T12:58:20;100305.22;;;24.55;42.99
62617;BME280;62539;51.190;6.808;2023-04-22T13:00:45;100303.00;;;24.49;43.32
62617;BME280;62539;51.190;6.808;2023-04-22T13:03:11;100304.78;;;24.35;43.53
62617;BME280;62539;51.190;6.808;2023-04-22T13:05:36;100316.19;;;24.23;43.52
62617;BME280;62539;51.190;6.808;2023-04-22T13:08:03;100308.00;;;24.13;43.57
62617;BME280;62539;51.190;6.808;2023-04-22T13:10:29;100308.50;;;24.05;43.70
62617;BME280;62539;51.190;6.808;2023-04-22T13:12:54;100308.22;;;23.96;43.92
62617;BME280;62539;51.190;6.808;2023-04-22T13:15:20;100309.66;;;23.87;44.39
62617;BME280;62539;51.190;6.808;2023-04-22T13:17:46;100309.34;;;23.78;44.16
62617;BME280;62539;51.190;6.808;2023-04-22T13:20:12;100315.97;;;23.71;44.49
62617;BME280;62539;51.190;6.808;2023-04-22T13:22:39;100333.19;;;23.64;44.44
62617;BME280;62539;51.190;6.808;2023-04-22T13:25:06;100339.72;;;23.58;44.56
62617;BME280;62539;51.190;6.808;2023-04-22T13:27:33;100335.66;;;23.53;44.79
62617;BME280;62539;51.190;6.808;2023-04-22T13:29:59;100339.53;;;23.47;44.67
62617;BME280;62539;51.190;6.808;2023-04-22T13:32:25;100341.53;;;23.43;44.87
62617;BME280;62539;51.190;6.808;2023-04-22T13:34:50;100342.88;;;23.36;44.83
62617;BME280;62539;51.190;6.808;2023-04-22T13:37:16;100325.66;;;23.29;44.67
62617;BME280;62539;51.190;6.808;2023-04-22T13:39:44;100332.31;;;23.20;44.92